Latest Weather Observations for Newman Airport

IDW60801

Issued at 10:03 pm WST Sunday 20 May 2018 (issued every 10 minutes, with the page automatically refreshed every 10 minutes)

About weather observations | Map of weather stations | Latest weather observations for WA | Other Formats
Station Details ID: 007176 Name: NEWMAN AERO Lat: -23.42 Lon: 119.80 Height: 524.0 m
Data from the previous 72 hours. | See also: Recent months at Newman Airport
Date/Time
WST
Temp
°C
App
Temp
°C
Dew
Point
°C
Rel
Hum
%
Delta-T
°C
Wind Press
QNH
hPa
Press
MSL
hPa
Rain since
9am
mm
Dir  Spd
km/h
Gust
km/h
Spd
kts
Gust
kts
20/10:00pm 12.2 8.9 -8.3 23 7.2 SSE 2 7 1 4 1023.8 1021.9 0.0
20/09:30pm 13.9 9.7 -8.0 21 7.9 SE 7 11 4 6 1023.7 1021.8 0.0
20/09:00pm 14.6 10.0 -8.1 20 8.2 SE 9 13 5 7 1023.7 1021.8 0.0
20/08:30pm 15.1 10.1 -8.3 19 8.5 SE 11 15 6 8 1023.5 1021.6 0.0
20/08:00pm 15.1 10.5 -8.3 19 8.5 SE 9 11 5 6 1023.2 1021.4 0.0
20/07:30pm 16.8 12.2 -8.4 17 9.3 SE 9 11 5 6 1022.8 1020.9 0.0
20/07:00pm 17.9 13.3 -8.2 16 9.8 ESE 9 13 5 7 1022.5 1020.6 0.0
20/06:30pm 19.7 14.7 -8.5 14 10.8 ESE 11 15 6 8 1022.1 1020.2 0.0
20/06:00pm 21.0 15.6 -8.4 13 11.4 ESE 13 19 7 10 1021.6 1019.7 0.0
20/05:30pm 22.1 15.9 -8.6 12 12.0 ESE 17 20 9 11 1021.2 1019.3 0.0
20/05:00pm 23.2 16.4 -8.9 11 12.6 ESE 20 30 11 16 1020.9 1019.0 0.0
20/04:30pm 23.7 17.0 -8.5 11 12.8 E 20 33 11 18 1020.6 1018.7 0.0
20/04:00pm 24.2 16.3 -9.3 10 13.2 ENE 26 39 14 21 1020.3 1018.4 0.0
20/03:30pm 24.3 16.7 -9.2 10 13.3 ESE 24 37 13 20 1020.3 1018.4 0.0
20/03:00pm 24.4 16.7 -10.5 9 13.5 E 24 35 13 19 1020.1 1018.2 0.0
20/02:30pm 24.2 17.6 -9.3 10 13.2 ESE 19 35 10 19 1020.3 1018.4 0.0
20/02:00pm 23.8 16.8 -7.3 12 12.7 ESE 22 33 12 18 1020.5 1018.6 0.0
20/01:30pm 23.3 16.3 -7.7 12 12.5 E 22 37 12 20 1020.8 1018.9 0.0
20/01:00pm 23.8 17.2 -7.3 12 12.6 E 20 30 11 16 1021.1 1019.2 0.0
20/12:30pm 23.0 16.0 -6.9 13 12.2 E 22 33 12 18 1021.9 1020.0 0.0
20/12:00pm 22.4 15.7 -8.4 12 12.1 E 20 30 11 16 1022.3 1020.4 0.0
20/11:30am 22.1 15.1 -7.6 13 11.8 ESE 22 37 12 20 1022.8 1020.9 0.0
20/11:00am 20.7 12.3 -6.0 16 10.8 E 30 39 16 21 1023.3 1021.5 0.0
20/10:30am 20.3 14.0 -5.5 17 10.5 E 19 30 10 16 1023.8 1021.9 0.0
20/10:00am 19.1 12.6 -5.7 18 9.9 E 20 32 11 17 1024.2 1022.3 0.0
20/09:30am 18.3 11.8 -5.7 19 9.6 E 20 30 11 16 1024.4 1022.5 0.0
20/09:00am 16.9 10.4 -5.5 21 8.8 E 20 30 11 16 1024.5 1022.6 0.0
20/08:30am 15.8 9.4 -4.7 24 8.1 E 20 28 11 15 1024.5 1022.6 0.0
20/08:00am 14.3 9.2 -4.9 26 7.4 ESE 13 20 7 11 1024.5 1022.6 0.0
20/07:30am 12.2 7.8 -5.7 28 6.7 ESE 9 13 5 7 1024.3 1022.4 0.0
20/07:00am 8.4 4.3 -6.5 34 5.2 SE 7 9 4 5 1024.2 1022.3 0.0
20/06:30am 5.5 1.4 -9.1 34 4.6 ESE 6 7 3 4 1023.9 1022.0 0.0
20/06:00am 6.0 1.8 -7.6 37 4.5 SE 7 9 4 5 1023.6 1021.7 0.0
20/05:30am 4.5 0.4 -9.2 36 4.2 SE 6 9 3 5 1023.2 1021.4 0.0
20/05:00am 4.8 0.7 -9.0 36 4.3 SSE 6 7 3 4 1023.0 1021.1 0.0
20/04:30am 4.3 0.0 -9.4 36 4.2 WSW 7 9 4 5 1022.9 1021.0 0.0
20/04:00am 5.4 1.0 -9.6 33 4.6 SSW 7 7 4 4 1022.8 1020.9 0.0
20/03:30am 5.3 1.5 -10.0 32 4.7 SSW 4 6 2 3 1022.7 1020.8 0.0
20/03:00am 6.0 3.0 -9.4 32 4.8 CALM 0 0 0 0 1022.6 1020.7 0.0
20/02:30am 6.9 2.8 -8.6 32 5.0 S 6 7 3 4 1022.5 1020.6 0.0
20/02:00am 9.1 4.9 -8.0 29 5.8 SSE 7 9 4 5 1022.5 1020.6 0.0
20/01:30am 9.3 4.3 -8.2 28 5.9 SSE 11 11 6 6 1022.6 1020.7 0.0
20/01:00am 8.2 4.9 -8.7 29 5.6 SSW 2 7 1 4 1022.5 1020.6 0.0
20/12:30am 8.7 5.4 -8.3 29 5.7 SSW 2 7 1 4 1022.3 1020.4 0.0
20/12:00am 8.3 5.3 -9.6 27 5.8 CALM 0 0 0 0 1022.4 1020.5 0.0
 
Date/Time
WST
Temp
°C
App
Temp
°C
Dew
Point
°C
Rel
Hum
%
Delta-T
°C
Wind Press
QNH
hPa
Press
MSL
hPa
Rain since
9am
mm
Dir  Spd
km/h
Gust
km/h
Spd
kts
Gust
kts
19/11:30pm 9.3 5.0 -9.2 26 6.1 S 7 9 4 5 1022.4 1020.5 0.0
19/11:00pm 9.9 5.5 -9.7 24 6.4 S 7 9 4 5 1022.4 1020.5 0.0
19/10:30pm 12.2 7.5 -8.9 22 7.3 SE 9 11 5 6 1022.6 1020.7 0.0
19/10:00pm 13.7 9.1 -8.2 21 7.8 SE 9 13 5 7 1022.6 1020.7 0.0
19/09:30pm 13.4 9.1 -9.1 20 7.9 SE 7 11 4 6 1022.6 1020.7 0.0
19/09:00pm 14.6 9.9 -8.7 19 8.3 SE 9 13 5 7 1022.6 1020.7 0.0
19/08:30pm 15.9 10.8 -9.1 17 9.0 SE 11 13 6 7 1022.6 1020.7 0.0
19/08:00pm 16.4 11.7 -8.7 17 9.2 SE 9 13 5 7 1022.2 1020.3 0.0
19/07:30pm 17.0 12.3 -9.8 15 9.7 SE 9 11 5 6 1021.8 1019.9 0.0
19/07:00pm 18.1 13.0 -9.8 14 10.2 ESE 11 13 6 7 1021.3 1019.4 0.0
19/06:30pm 19.6 14.5 -9.5 13 10.9 ESE 11 13 6 7 1021.0 1019.1 0.0
19/06:00pm 21.3 16.1 -10.3 11 11.8 ESE 11 17 6 9 1020.8 1018.9 0.0
19/05:30pm 22.3 16.0 -10.7 10 12.4 ESE 17 26 9 14 1020.5 1018.6 0.0
19/05:00pm 23.4 16.5 -11.2 9 13.0 ESE 20 32 11 17 1020.2 1018.3 0.0
19/04:30pm 23.8 17.1 -10.9 9 13.2 ESE 19 30 10 16 1019.8 1017.9 0.0
19/04:00pm 23.8 16.1 -10.9 9 13.2 E 24 35 13 19 1019.8 1017.9 0.0
19/03:30pm 24.1 17.2 -10.7 9 13.4 E 20 33 11 18 1019.7 1017.7 0.0
19/03:00pm 24.0 16.8 -9.5 10 13.1 E 22 39 12 21 1019.7 1017.7 0.0
19/02:30pm 23.9 16.7 -9.5 10 13.1 ESE 22 37 12 20 1019.7 1017.7 0.0
19/02:00pm 23.9 17.2 -8.3 11 12.9 E 20 32 11 17 1019.9 1018.0 0.0
19/01:30pm 23.2 15.7 -8.9 11 12.6 ENE 24 35 13 19 1020.2 1018.3 0.0
19/01:00pm 22.9 16.1 -9.1 11 12.5 E 20 32 11 17 1020.7 1018.8 0.0
19/12:30pm 22.3 14.8 -8.4 12 12.1 E 24 37 13 20 1021.1 1019.2 0.0
19/12:00pm 21.6 14.6 -7.0 14 11.4 E 22 32 12 17 1021.8 1019.9 0.0
19/11:30am 21.4 14.2 -5.4 16 11.1 ENE 24 37 13 20 1022.2 1020.3 0.0
19/11:00am 20.6 12.6 -5.3 17 10.6 ENE 28 41 15 22 1022.7 1020.8 0.0
19/10:30am 20.2 12.3 -4.8 18 10.3 E 28 37 15 20 1023.2 1021.4 0.0
19/10:04am 19.7 11.8 -4.5 19 10.0 E 28 46 15 25 1023.5 1021.6 0.0
19/10:00am 19.6 11.7 -4.6 19 9.9 ENE 28 39 15 21 1023.6 1021.7 0.0
19/09:30am 18.0 10.2 -4.0 22 9.1 E 28 39 15 21 1023.9 1022.0 0.0
19/09:00am 17.0 10.9 -3.7 24 8.4 E 19 26 10 14 1024.1 1022.2 0.0
19/08:30am 15.4 9.8 -3.0 28 7.5 ESE 17 26 9 14 1024.1 1022.2 0.0
19/08:00am 13.9 8.3 -2.9 31 6.8 E 17 26 9 14 1024.1 1022.2 0.0
19/07:30am 13.1 7.5 -2.8 33 6.4 ESE 17 22 9 12 1023.9 1022.0 0.0
19/07:00am 11.7 7.6 -3.2 35 5.8 ESE 9 13 5 7 1023.7 1021.8 0.0
19/06:30am 10.6 6.5 -3.1 38 5.3 ESE 9 13 5 7 1023.2 1021.4 0.0
19/06:00am 11.1 7.0 -3.4 36 5.6 ESE 9 11 5 6 1023.0 1021.1 0.0
19/05:30am 12.1 7.2 -3.3 34 6.1 ESE 13 19 7 10 1022.9 1021.0 0.0
19/05:00am 12.5 7.7 -2.9 34 6.1 ESE 13 22 7 12 1022.7 1020.8 0.0
19/04:30am 12.6 7.7 -3.2 33 6.3 ESE 13 22 7 12 1022.6 1020.7 0.0
19/04:00am 12.3 7.9 -2.7 35 6.0 E 11 15 6 8 1022.6 1020.7 0.0
19/03:30am 11.6 7.9 -2.6 37 5.6 E 7 13 4 7 1022.6 1020.7 0.0
19/03:00am 10.9 7.2 -2.5 39 5.3 ESE 7 11 4 6 1022.8 1020.9 0.0
19/02:30am 11.1 7.4 -2.7 38 5.4 SE 7 11 4 6 1022.9 1021.0 0.0
19/02:00am 12.6 8.2 -2.4 35 6.0 ESE 11 15 6 8 1023.0 1021.1 0.0
19/01:30am 13.4 9.4 -2.5 33 6.5 ESE 9 13 5 7 1023.0 1021.1 0.0
19/01:00am 13.6 9.6 -2.3 33 6.5 ESE 9 13 5 7 1022.9 1021.0 0.0
19/12:30am 13.0 9.3 -2.5 34 6.3 ESE 7 11 4 6 1023.0 1021.1 0.0
19/12:00am 12.0 8.9 -3.0 35 5.9 E 4 9 2 5 1023.2 1021.4 0.0
 
Date/Time
WST
Temp
°C
App
Temp
°C
Dew
Point
°C
Rel
Hum
%
Delta-T
°C
Wind Press
QNH
hPa
Press
MSL
hPa
Rain since
9am
mm
Dir  Spd
km/h
Gust
km/h
Spd
kts
Gust
kts
18/11:30pm 12.8 9.0 -3.5 32 6.4 ESE 7 9 4 5 1023.6 1021.7 0.0
18/11:00pm 11.9 8.0 -4.2 32 6.2 SE 7 9 4 5 1023.7 1021.8 0.0
18/10:30pm 11.3 7.5 -5.6 30 6.2 SE 6 7 3 4 1023.6 1021.7 0.0
18/10:00pm 13.8 9.5 -4.4 28 7.1 SE 9 11 5 6 1023.3 1021.5 0.0
18/09:30pm 14.5 10.3 -4.2 27 7.4 SE 9 11 5 6 1023.5 1021.6 0.0
18/09:00pm 15.6 11.4 -4.3 25 7.9 SE 9 11 5 6 1023.6 1021.7 0.0
18/08:30pm 16.5 12.2 -4.7 23 8.5 SE 9 13 5 7 1023.3 1021.5 0.0
18/08:00pm 17.7 13.1 -4.3 22 8.9 ESE 11 13 6 7 1023.1 1021.3 0.0
18/07:30pm 18.4 13.4 -4.3 21 9.3 ESE 13 15 7 8 1022.8 1020.9 0.0
18/07:00pm 19.3 14.3 -4.2 20 9.7 ESE 13 17 7 9 1022.5 1020.6 0.0
18/06:30pm 20.1 14.3 -4.2 19 10.2 ESE 17 22 9 12 1022.2 1020.3 0.0
18/06:00pm 20.8 15.5 -3.6 19 10.4 ESE 15 24 8 13 1021.7 1019.8 0.0
18/05:30pm 21.9 16.1 -4.2 17 11.1 ESE 17 26 9 14 1021.3 1019.4 0.0
18/05:00pm 22.9 16.6 -4.2 16 11.6 ESE 20 30 11 16 1020.9 1019.0 0.0
18/04:30pm 23.4 17.0 -4.7 15 12.0 ESE 20 35 11 19 1020.6 1018.7 0.0
18/04:00pm 23.7 16.9 -5.3 14 12.2 ESE 22 33 12 18 1020.4 1018.5 0.0
18/03:30pm 24.1 17.4 -4.1 15 12.3 E 22 32 12 17 1020.3 1018.4 0.0
18/03:00pm 24.0 17.1 -6.1 13 12.5 ESE 22 33 12 18 1020.5 1018.6 0.0
18/02:30pm 23.2 16.9 -4.0 16 11.8 E 20 33 11 18 1020.6 1018.7 0.0
18/02:00pm 23.4 17.2 -3.0 17 11.6 ESE 20 32 11 17 1020.7 1018.8 0.0
18/01:30pm 22.7 16.8 -2.1 19 11.1 E 19 26 10 14 1020.9 1019.0 0.0
18/01:00pm 22.7 16.7 -1.4 20 10.9 ESE 20 32 11 17 1021.3 1019.4 0.0
18/12:30pm 21.7 16.0 -0.9 22 10.2 ENE 19 32 10 17 1022.0 1020.1 0.0
18/12:00pm 20.8 14.6 -0.5 24 9.6 ENE 22 32 12 17 1022.5 1020.6 0.0
18/11:30am 20.6 14.7 -0.7 24 9.6 ESE 20 39 11 21 1022.9 1021.0 0.0
18/11:00am 20.1 13.4 -1.1 24 9.4 E 24 35 13 19 1023.6 1021.7 0.0
18/10:30am 19.2 12.6 -0.2 27 8.7 E 24 35 13 19 1024.2 1022.3 0.0
18/10:00am 18.5 11.2 -0.3 28 8.3 ENE 28 37 15 20 1024.6 1022.7 0.0
18/09:30am 18.3 11.7 -0.5 28 8.3 E 24 33 13 18 1024.8 1023.0 0.0
18/09:00am 17.1 10.5 -0.1 31 7.6 E 24 32 13 17 1024.9 1023.1 0.0
18/08:30am 15.7 10.2 0.3 35 6.8 E 19 28 10 15 1024.7 1022.8 0.0
18/08:00am 14.0 9.3 0.6 40 5.8 ESE 15 24 8 13 1024.7 1022.8 0.0
18/07:30am 12.5 8.5 0.3 43 5.2 ESE 11 19 6 10 1024.7 1022.8 0.0
18/07:00am 11.6 7.9 -0.2 44 4.9 ESE 9 13 5 7 1024.6 1022.7 0.0
18/06:30am 10.7 6.9 -0.7 45 4.7 SE 9 13 5 7 1024.5 1022.6 0.0
18/06:00am 11.6 7.5 -0.5 43 5.0 ESE 11 15 6 8 1024.2 1022.3 0.0
18/05:30am 11.7 7.5 -0.8 42 5.2 ESE 11 15 6 8 1024.3 1022.4 0.0
18/05:00am 12.0 7.9 -0.5 42 5.2 ESE 11 13 6 7 1024.3 1022.4 0.0
18/04:30am 11.0 6.7 -1.4 42 5.0 ESE 11 15 6 8 1024.2 1022.3 0.0
18/04:00am 10.1 6.5 -3.6 38 5.2 ESE 6 9 3 5 1024.2 1022.3 0.0
18/03:30am 9.2 5.6 -3.7 40 4.9 NE 6 9 3 5 1024.3 1022.4 0.0
18/03:00am 10.1 6.9 -3.6 38 5.2 NE 4 6 2 3 1024.2 1022.3 0.0
18/02:30am 11.5 7.0 -3.0 36 5.7 SSE 11 13 6 7 1024.1 1022.2 0.0
18/02:00am 11.4 7.0 -2.8 37 5.6 SSE 11 13 6 7 1024.2 1022.3 0.0
18/01:30am 9.6 5.5 -3.3 40 4.9 SSW 9 9 5 5 1024.3 1022.4 0.0
18/01:00am 9.5 7.0 -4.4 37 5.1 CALM 0 0 0 0 1024.5 1022.6 0.0
18/12:30am 10.5 7.1 -5.1 33 5.8 E 4 6 2 3 1024.4 1022.5 0.0
18/12:00am 12.4 9.9 -4.2 31 6.4 CALM 0 0 0 0 1024.5 1022.6 0.0
 
Date/Time
WST
Temp
°C
App
Temp
°C
Dew
Point
°C
Rel
Hum
%
Delta-T
°C
Wind Press
QNH
hPa
Press
MSL
hPa
Rain since
9am
mm
Dir  Spd
km/h
Gust
km/h
Spd
kts
Gust
kts
17/11:30pm 14.6 11.4 -3.2 29 7.2 ESE 4 7 2 4 1024.7 1022.8 0.0
17/11:00pm 16.3 12.2 -2.7 27 7.9 ESE 9 11 5 6 1024.5 1022.6 0.0
17/10:30pm 17.1 12.7 -2.5 26 8.3 ESE 11 15 6 8 1024.6 1022.7 0.0

Other Formats:

Comma delimited format used in spreadsheet applications
http://www.bom.gov.au/fwo/IDW60801/IDW60801.94317.axf

JavaScript Object Notation format (JSON) in row-major order
http://www.bom.gov.au/fwo/IDW60801/IDW60801.94317.json